createdAt,value
2023-01-17T00:01:34.191Z,5.47
2023-01-17T00:04:19.948Z,7.03
2023-01-17T00:07:16.365Z,4.32
2023-01-17T00:09:57.355Z,8.68
2023-01-17T00:12:27.888Z,5.25
2023-01-17T00:15:03.205Z,3.53
2023-01-17T00:17:31.375Z,3.63
2023-01-17T00:20:21.510Z,5.13
2023-01-17T00:23:07.288Z,5.43
2023-01-17T00:25:59.197Z,5.47
2023-01-17T00:28:26.717Z,4.78
2023-01-17T00:30:53.604Z,4.85
2023-01-17T00:33:21.136Z,4.93
2023-01-17T00:35:48.285Z,3.47
2023-01-17T00:38:18.812Z,7.70
2023-01-17T00:40:46.060Z,4.88
2023-01-17T00:43:32.294Z,3.67
2023-01-17T00:46:18.142Z,3.55
2023-01-17T00:49:03.422Z,8.05
2023-01-17T00:51:49.648Z,6.15
2023-01-17T00:54:36.711Z,6.72
2023-01-17T00:57:22.859Z,4.13
2023-01-17T01:00:08.778Z,7.38
2023-01-17T01:02:57.331Z,5.20
2023-01-17T01:05:42.497Z,3.10
2023-01-17T01:08:37.847Z,6.35
2023-01-17T01:11:26.616Z,7.05
2023-01-17T01:14:12.599Z,2.15
2023-01-17T01:16:58.314Z,8.48
2023-01-17T01:19:48.268Z,12.85
2023-01-17T01:22:34.097Z,3.65
2023-01-17T01:25:21.831Z,9.02
2023-01-17T01:28:07.660Z,3.20
2023-01-17T01:30:53.499Z,5.72
2023-01-17T01:33:20.647Z,7.45
2023-01-17T01:35:51.837Z,3.47
2023-01-17T01:38:20.360Z,6.05
2023-01-17T01:40:48.916Z,4.30
2023-01-17T01:43:17.960Z,6.65
2023-01-17T01:45:50.299Z,2.45
2023-01-17T01:48:22.949Z,5.40
2023-01-17T01:50:50.099Z,2.58
2023-01-17T01:53:17.490Z,3.58
2023-01-17T01:55:47.781Z,6.32
2023-01-17T01:58:19.237Z,6.25
2023-01-17T02:00:46.490Z,3.95
2023-01-17T02:03:26.246Z,4.28
2023-01-17T02:05:53.376Z,3.13
2023-01-17T02:08:21.754Z,6.32
2023-01-17T02:10:51.309Z,3.45
2023-01-17T02:13:19.344Z,4.63
2023-01-17T02:15:46.495Z,5.38
2023-01-17T02:18:22.337Z,2.92
2023-01-17T02:21:03.725Z,2.58
2023-01-17T02:23:51.881Z,7.30
2023-01-17T02:26:45.632Z,4.40
2023-01-17T02:29:24.823Z,4.47
2023-01-17T02:32:10.778Z,2.47
2023-01-17T02:35:06.942Z,3.88
2023-01-17T02:38:17.464Z,3.10
2023-01-17T02:41:07.886Z,5.00
2023-01-17T02:43:34.935Z,4.47
2023-01-17T02:46:01.923Z,4.22
2023-01-17T02:48:30.130Z,4.60
2023-01-17T02:51:12.514Z,7.43
2023-01-17T02:54:04.348Z,9.45
2023-01-17T02:56:54.028Z,3.20
2023-01-17T02:59:45.788Z,6.65
2023-01-17T03:02:21.302Z,3.28
2023-01-17T03:04:49.599Z,4.88
2023-01-17T03:07:21.940Z,6.85
2023-01-17T03:09:49.679Z,3.92
2023-01-17T03:12:16.644Z,3.67
2023-01-17T03:14:43.640Z,6.25
2023-01-17T03:17:10.861Z,7.38
2023-01-17T03:19:37.799Z,2.83
2023-01-17T03:22:06.597Z,3.40
2023-01-17T03:24:33.629Z,4.90
2023-01-17T03:27:00.511Z,4.90
2023-01-17T03:29:27.411Z,4.60
2023-01-17T03:31:56.857Z,2.08
2023-01-17T03:34:23.965Z,5.25
2023-01-17T03:36:50.917Z,7.25
2023-01-17T03:39:18.064Z,4.40
2023-01-17T03:41:45.022Z,5.20
2023-01-17T03:44:12.345Z,3.53
2023-01-17T03:46:39.516Z,3.13
2023-01-17T03:49:06.720Z,3.53
2023-01-17T03:51:34.120Z,2.83
2023-01-17T03:54:01.173Z,4.72
2023-01-17T03:56:28.322Z,2.05
2023-01-17T03:58:55.378Z,1.73
2023-01-17T04:01:22.778Z,4.22
2023-01-17T04:03:49.878Z,4.97
2023-01-17T04:06:21.492Z,2.50
2023-01-17T04:08:48.460Z,1.45
2023-01-17T04:11:15.399Z,2.13
2023-01-17T04:13:42.342Z,2.65
2023-01-17T04:16:16.745Z,5.68
2023-01-17T04:18:43.934Z,1.92
2023-01-17T04:21:11.138Z,4.13
2023-01-17T04:23:38.161Z,2.53
2023-01-17T04:26:05.593Z,2.10
2023-01-17T04:28:35.344Z,1.92
2023-01-17T04:31:02.480Z,3.97
2023-01-17T04:33:29.842Z,1.33
2023-01-17T04:35:59.323Z,2.13
2023-01-17T04:38:26.480Z,10.45
2023-01-17T04:40:53.487Z,2.38
2023-01-17T04:43:22.887Z,3.45
2023-01-17T04:46:00.204Z,3.95
2023-01-17T04:48:27.473Z,1.65
2023-01-17T04:51:01.479Z,4.00
2023-01-17T04:53:28.663Z,2.15
2023-01-17T04:55:55.638Z,2.42
2023-01-17T04:58:23.292Z,3.63
2023-01-17T05:00:51.784Z,2.40
2023-01-17T05:03:19.645Z,4.45
2023-01-17T05:05:46.811Z,0.82
2023-01-17T05:08:13.941Z,1.70
2023-01-17T05:10:45.332Z,3.63
2023-01-17T05:13:15.209Z,1.48
2023-01-17T05:15:42.196Z,4.15
2023-01-17T05:18:18.254Z,2.53
2023-01-17T05:20:45.254Z,5.75
2023-01-17T05:23:12.207Z,7.70
2023-01-17T05:25:44.569Z,4.25
2023-01-17T05:28:12.895Z,2.70
2023-01-17T05:30:40.382Z,2.13
2023-01-17T05:33:08.358Z,2.60
2023-01-17T05:35:35.536Z,2.45
2023-01-17T05:38:03.702Z,3.35
2023-01-17T05:40:34.889Z,2.53
2023-01-17T05:43:03.212Z,1.65
2023-01-17T05:45:31.017Z,2.00
2023-01-17T05:47:58.679Z,3.15
2023-01-17T05:50:31.485Z,3.40
2023-01-17T05:52:59.924Z,1.38
2023-01-17T05:55:27.685Z,1.63
2023-01-17T05:57:55.178Z,3.42
2023-01-17T06:00:22.695Z,5.38
2023-01-17T06:02:52.124Z,1.83
2023-01-17T06:05:19.154Z,2.30
2023-01-17T06:07:47.024Z,3.20
2023-01-17T06:10:15.122Z,2.38
2023-01-17T06:12:43.307Z,2.38
2023-01-17T06:15:13.771Z,2.67
2023-01-17T06:17:40.877Z,7.20
2023-01-17T06:20:08.859Z,2.55
2023-01-17T06:22:36.002Z,4.13
2023-01-17T06:25:03.149Z,2.20
2023-01-17T06:27:30.207Z,3.63
2023-01-17T06:29:57.137Z,3.83
2023-01-17T06:32:24.231Z,1.85
2023-01-17T06:34:51.118Z,2.42
2023-01-17T06:37:18.029Z,2.53
2023-01-17T06:39:45.075Z,2.67
2023-01-17T06:42:12.145Z,1.90
2023-01-17T06:44:39.616Z,3.67
2023-01-17T06:47:06.869Z,5.68
2023-01-17T06:49:33.877Z,2.88
2023-01-17T06:52:03.089Z,1.65
2023-01-17T06:54:29.978Z,1.88
2023-01-17T06:56:56.959Z,2.60
2023-01-17T06:59:23.863Z,4.53
2023-01-17T07:01:51.128Z,6.10
2023-01-17T07:04:18.395Z,1.52
2023-01-17T07:06:47.910Z,2.78
2023-01-17T07:09:14.994Z,4.78
2023-01-17T07:11:41.920Z,6.13
2023-01-17T07:14:13.045Z,3.58
2023-01-17T07:16:40.055Z,3.10
2023-01-17T07:19:07.067Z,4.40
2023-01-17T07:21:34.182Z,3.47
2023-01-17T07:24:01.180Z,2.88
2023-01-17T07:26:28.127Z,5.35
2023-01-17T07:28:55.136Z,3.08
2023-01-17T07:31:22.144Z,3.85
2023-01-17T07:33:49.269Z,3.25
2023-01-17T07:36:16.381Z,3.20
2023-01-17T07:38:44.981Z,2.38
2023-01-17T07:41:12.135Z,1.48
2023-01-17T07:43:39.287Z,2.40
2023-01-17T07:46:07.895Z,5.00
2023-01-17T07:48:34.913Z,4.68
2023-01-17T07:51:01.781Z,4.75
2023-01-17T07:53:30.300Z,5.68
2023-01-17T07:56:03.819Z,3.92
2023-01-17T07:58:31.339Z,5.40
2023-01-17T08:01:09.411Z,3.72
2023-01-17T08:03:40.143Z,4.78
2023-01-17T08:06:21.395Z,2.95
2023-01-17T08:08:48.726Z,10.07
2023-01-17T08:11:15.947Z,2.22
2023-01-17T08:13:43.025Z,2.85
2023-01-17T08:16:12.869Z,5.75
2023-01-17T08:18:40.219Z,5.88
2023-01-17T08:21:18.445Z,6.80
2023-01-17T08:23:49.281Z,6.43
2023-01-17T08:26:21.670Z,3.53
2023-01-17T08:29:00.633Z,5.68
2023-01-17T08:31:34.331Z,5.10
2023-01-17T08:34:01.879Z,6.70
2023-01-17T08:36:31.601Z,7.45
2023-01-17T08:38:59.032Z,6.43
2023-01-17T08:41:27.943Z,3.95
2023-01-17T08:43:55.055Z,5.13
2023-01-17T08:46:22.711Z,5.32
2023-01-17T08:48:55.924Z,6.13
2023-01-17T08:51:27.562Z,11.30
2023-01-17T08:53:55.300Z,4.43
2023-01-17T08:56:23.880Z,4.13
2023-01-17T08:58:54.005Z,3.58
2023-01-17T09:01:21.195Z,4.65
2023-01-17T09:03:54.345Z,5.38
2023-01-17T09:06:21.367Z,7.37
2023-01-17T09:08:49.753Z,4.88
2023-01-17T09:11:17.462Z,4.07
2023-01-17T09:13:46.563Z,4.85
2023-01-17T09:16:13.517Z,3.90
2023-01-17T09:18:43.740Z,2.10
2023-01-17T09:21:14.457Z,6.68
2023-01-17T09:23:47.244Z,4.90
2023-01-17T09:26:28.331Z,2.53
2023-01-17T09:28:55.624Z,6.97
2023-01-17T09:31:23.080Z,4.00
2023-01-17T09:33:52.772Z,4.78
2023-01-17T09:36:20.360Z,10.93
2023-01-17T09:38:53.119Z,9.00
2023-01-17T09:41:31.101Z,8.52
2023-01-17T09:44:19.907Z,4.22
2023-01-17T09:46:50.313Z,4.53
2023-01-17T09:49:33.923Z,8.70
2023-01-17T09:52:04.611Z,4.32
2023-01-17T09:54:37.762Z,8.88
2023-01-17T09:57:22.427Z,11.10
2023-01-17T10:00:04.884Z,16.63
2023-01-17T10:02:48.293Z,6.47
2023-01-17T10:05:35.310Z,15.13
2023-01-17T10:08:20.653Z,16.00
2023-01-17T10:11:14.055Z,4.93
2023-01-17T10:13:57.506Z,5.30
2023-01-17T10:16:42.774Z,10.65
2023-01-17T10:19:15.940Z,9.88
2023-01-17T10:22:27.214Z,6.60
2023-01-17T10:25:16.730Z,8.63
2023-01-17T10:28:00.112Z,5.88
2023-01-17T10:30:32.071Z,4.53
2023-01-17T10:32:59.698Z,7.32
2023-01-17T10:35:29.569Z,8.00
2023-01-17T10:37:57.125Z,13.68
2023-01-17T10:40:41.456Z,9.10
2023-01-17T10:45:43.688Z,8.70
2023-01-17T10:48:28.208Z,14.55
2023-01-17T10:52:02.123Z,12.93
2023-01-17T10:55:13.239Z,13.88
2023-01-17T10:57:50.945Z,7.82
2023-01-17T11:00:40.825Z,9.63
2023-01-17T11:03:10.381Z,11.60
2023-01-17T11:05:43.014Z,11.95
2023-01-17T11:08:23.383Z,10.60
2023-01-17T11:10:58.797Z,9.00
2023-01-17T11:13:34.106Z,10.45
2023-01-17T11:16:09.567Z,6.93
2023-01-17T11:18:46.070Z,6.75
2023-01-17T11:21:16.956Z,14.95
2023-01-17T11:23:54.849Z,12.00
2023-01-17T11:26:37.249Z,13.10
2023-01-17T11:29:15.173Z,17.52
2023-01-17T11:31:42.196Z,14.85
2023-01-17T11:34:22.605Z,15.38
2023-01-17T11:36:50.330Z,16.45
2023-01-17T11:39:20.213Z,13.30
2023-01-17T11:41:51.149Z,15.18
2023-01-17T11:44:24.401Z,11.18
2023-01-17T11:47:14.413Z,12.10
2023-01-17T11:49:42.465Z,10.40
2023-01-17T11:52:19.225Z,10.88
2023-01-17T11:54:47.477Z,8.32
2023-01-17T11:57:40.736Z,15.25
2023-01-17T12:00:19.482Z,12.40
2023-01-17T12:03:16.155Z,10.02
2023-01-17T12:05:53.782Z,8.60
2023-01-17T12:08:34.385Z,13.82
2023-01-17T12:11:22.207Z,11.38
2023-01-17T12:14:01.089Z,16.83
2023-01-17T12:16:33.874Z,9.82
2023-01-17T12:19:22.613Z,8.68
2023-01-17T12:22:33.912Z,4.80
2023-01-17T12:25:31.706Z,8.32
2023-01-17T12:28:22.741Z,11.75
2023-01-17T12:30:59.390Z,11.35
2023-01-17T12:33:50.504Z,8.63
2023-01-17T12:36:27.727Z,10.32
2023-01-17T12:38:56.714Z,13.35
2023-01-17T12:41:37.135Z,8.18
2023-01-17T12:44:04.298Z,7.57
2023-01-17T12:46:39.612Z,7.43
2023-01-17T12:49:24.089Z,8.50
2023-01-17T12:51:59.578Z,8.15
2023-01-17T12:54:33.671Z,7.75
2023-01-17T12:57:13.960Z,6.45
2023-01-17T12:59:49.063Z,7.53
2023-01-17T13:02:34.608Z,8.18
2023-01-17T13:05:31.046Z,14.00
2023-01-17T13:08:22.702Z,7.97
2023-01-17T13:10:58.471Z,9.70
2023-01-17T13:13:27.489Z,9.40
2023-01-17T13:16:12.861Z,15.38
2023-01-17T13:18:46.192Z,15.10
2023-01-17T13:21:31.924Z,12.07
2023-01-17T13:24:07.845Z,18.98
2023-01-17T13:27:00.917Z,10.50
2023-01-17T13:29:27.907Z,13.05
2023-01-17T13:32:24.096Z,14.30
2023-01-17T13:35:15.901Z,9.23
2023-01-17T13:38:07.418Z,12.27
2023-01-17T13:40:54.644Z,15.48
2023-01-17T13:43:24.043Z,11.02
2023-01-17T13:45:58.513Z,18.42
2023-01-17T13:48:44.383Z,12.10
2023-01-17T13:51:11.612Z,10.15
2023-01-17T13:53:41.520Z,14.10
2023-01-17T13:56:29.011Z,11.13
2023-01-17T13:59:02.813Z,8.55
2023-01-17T14:01:34.923Z,10.05
2023-01-17T14:04:02.975Z,10.55
2023-01-17T14:06:39.206Z,12.70
2023-01-17T14:09:21.363Z,8.13
2023-01-17T14:12:16.500Z,10.68
2023-01-17T14:14:51.279Z,9.30
2023-01-17T14:17:20.539Z,10.77
2023-01-17T14:19:51.129Z,10.52
2023-01-17T14:22:21.930Z,14.95
2023-01-17T14:25:17.825Z,16.25
2023-01-17T14:27:53.383Z,15.63
2023-01-17T14:30:27.984Z,7.72
2023-01-17T14:33:11.135Z,9.20
2023-01-17T14:35:41.792Z,15.98
2023-01-17T14:38:27.112Z,17.38
2023-01-17T14:40:59.346Z,22.10
2023-01-17T14:43:28.799Z,19.17
2023-01-17T14:46:24.984Z,10.82
2023-01-17T14:49:00.135Z,10.10
2023-01-17T14:51:29.856Z,9.40
2023-01-17T14:54:02.442Z,11.18
2023-01-17T14:56:30.487Z,7.43
2023-01-17T14:59:20.415Z,7.43
2023-01-17T15:02:06.819Z,13.43
2023-01-17T15:04:39.620Z,10.40
2023-01-17T15:07:07.056Z,12.15
2023-01-17T15:09:37.602Z,19.38
2023-01-17T15:12:05.046Z,12.30
2023-01-17T15:14:34.144Z,11.68
2023-01-17T15:17:25.017Z,12.80
2023-01-17T15:20:16.110Z,11.02
2023-01-17T15:22:43.335Z,7.72
2023-01-17T15:25:10.684Z,12.55
2023-01-17T15:27:37.968Z,11.02
2023-01-17T15:30:07.668Z,9.30
2023-01-17T15:32:34.661Z,11.05
2023-01-17T15:35:08.101Z,11.25
2023-01-17T15:37:39.956Z,12.25
2023-01-17T15:40:17.290Z,10.68
2023-01-17T15:42:44.901Z,10.98
2023-01-17T15:45:15.754Z,11.10
2023-01-17T15:47:45.589Z,11.23
2023-01-17T15:50:30.901Z,9.25
2023-01-17T15:53:02.730Z,13.65
2023-01-17T15:55:39.478Z,14.60
2023-01-17T15:58:27.964Z,12.57
2023-01-17T16:00:55.169Z,9.27
2023-01-17T16:03:23.236Z,8.38
2023-01-17T16:05:50.715Z,8.75
2023-01-17T16:08:28.406Z,7.82
2023-01-17T16:10:59.263Z,12.63
2023-01-17T16:13:26.220Z,17.63
2023-01-17T16:15:53.935Z,8.77
2023-01-17T16:18:26.310Z,6.95
2023-01-17T16:21:02.080Z,9.73
2023-01-17T16:23:29.123Z,10.65
2023-01-17T16:25:58.733Z,13.07
2023-01-17T16:28:25.885Z,9.13
2023-01-17T16:30:54.187Z,8.20
2023-01-17T16:33:21.205Z,8.85
2023-01-17T16:35:48.244Z,8.95
2023-01-17T16:38:16.211Z,10.02
2023-01-17T16:40:44.580Z,8.00
2023-01-17T16:43:12.351Z,10.57
2023-01-17T16:45:40.545Z,11.55
2023-01-17T16:48:07.705Z,10.23
2023-01-17T16:50:34.716Z,10.57
2023-01-17T16:53:02.404Z,10.60
2023-01-17T16:55:29.832Z,14.38
2023-01-17T16:57:59.360Z,13.18
2023-01-17T17:00:27.013Z,13.88
2023-01-17T17:02:54.207Z,12.95
2023-01-17T17:05:21.386Z,12.70
2023-01-17T17:07:51.650Z,13.77
2023-01-17T17:10:22.072Z,14.73
2023-01-17T17:12:48.974Z,15.98
2023-01-17T17:15:15.864Z,9.05
2023-01-17T17:17:43.384Z,9.95
2023-01-17T17:20:14.359Z,10.85
2023-01-17T17:22:44.170Z,13.63
2023-01-17T17:25:12.285Z,12.75
2023-01-17T17:27:39.489Z,11.82
2023-01-17T17:30:07.766Z,12.15
2023-01-17T17:32:34.724Z,13.80
2023-01-17T17:35:01.721Z,14.15
2023-01-17T17:37:29.292Z,8.40
2023-01-17T17:39:57.282Z,16.48
2023-01-17T17:42:24.523Z,12.52
2023-01-17T17:44:51.580Z,14.55
2023-01-17T17:47:19.149Z,12.43
2023-01-17T17:49:46.077Z,14.57
2023-01-17T17:52:13.154Z,13.57
2023-01-17T17:54:40.113Z,15.30
2023-01-17T17:57:07.741Z,18.40
2023-01-17T17:59:34.790Z,17.35
2023-01-17T18:02:03.035Z,25.38
2023-01-17T18:04:30.165Z,11.45
2023-01-17T18:06:57.792Z,14.18
2023-01-17T18:09:24.803Z,16.67
2023-01-17T18:11:51.843Z,17.55
2023-01-17T18:14:21.197Z,19.52
2023-01-17T18:16:48.387Z,14.20
2023-01-17T18:19:23.062Z,18.27
2023-01-17T18:21:51.432Z,15.40
2023-01-17T18:24:20.239Z,10.32
2023-01-17T18:26:51.844Z,20.10
2023-01-17T18:29:20.059Z,12.15
2023-01-17T18:31:47.476Z,11.10
2023-01-17T18:34:15.515Z,16.55
2023-01-17T18:36:43.044Z,13.80
2023-01-17T18:39:29.417Z,9.43
2023-01-17T18:41:56.458Z,12.15
2023-01-17T18:44:23.482Z,14.70
2023-01-17T18:46:51.282Z,17.27
2023-01-17T18:49:21.320Z,16.55
2023-01-17T18:51:53.745Z,15.95
2023-01-17T18:54:20.895Z,15.85
2023-01-17T18:56:48.202Z,20.20
2023-01-17T18:59:18.658Z,30.17
2023-01-17T19:01:45.882Z,22.60
2023-01-17T19:04:13.942Z,35.97
2023-01-17T19:06:45.274Z,15.93
2023-01-17T19:09:13.444Z,22.88
2023-01-17T19:11:40.388Z,14.85
2023-01-17T19:14:07.499Z,19.80
2023-01-17T19:16:39.462Z,15.93
2023-01-17T19:19:08.495Z,14.90
2023-01-17T19:21:35.627Z,16.38
2023-01-17T19:24:02.966Z,18.63
2023-01-17T19:26:30.238Z,17.50
2023-01-17T19:28:59.177Z,19.33
2023-01-17T19:31:30.077Z,18.23
2023-01-17T19:33:58.328Z,18.42
2023-01-17T19:36:27.404Z,21.40
2023-01-17T19:39:04.519Z,16.08
2023-01-17T19:41:34.149Z,16.98
2023-01-17T19:44:03.758Z,22.38
2023-01-17T19:46:31.493Z,19.80
2023-01-17T19:48:59.817Z,14.48
2023-01-17T19:51:27.133Z,19.20
2023-01-17T19:53:55.142Z,13.52
2023-01-17T19:56:23.895Z,18.42
2023-01-17T19:58:51.121Z,16.60
2023-01-17T20:01:19.426Z,16.35
2023-01-17T20:03:46.820Z,21.27
2023-01-17T20:06:15.221Z,16.50
2023-01-17T20:08:42.291Z,16.20
2023-01-17T20:11:11.499Z,17.08
2023-01-17T20:13:38.661Z,23.02
2023-01-17T20:16:07.014Z,15.68
2023-01-17T20:18:34.397Z,13.93
2023-01-17T20:21:09.722Z,14.18
2023-01-17T20:23:39.092Z,16.55
2023-01-17T20:26:06.282Z,18.92
2023-01-17T20:28:35.497Z,18.02
2023-01-17T20:31:14.833Z,19.90
2023-01-17T20:33:43.381Z,22.40
2023-01-17T20:36:12.069Z,18.95
2023-01-17T20:38:45.261Z,15.45
2023-01-17T20:41:46.353Z,15.88
2023-01-17T20:44:15.427Z,21.50
2023-01-17T20:46:42.693Z,17.65
2023-01-17T20:49:25.777Z,12.13
2023-01-17T20:51:52.740Z,16.20
2023-01-17T20:54:19.928Z,17.52
2023-01-17T20:56:49.893Z,18.77
2023-01-17T20:59:18.889Z,26.23
2023-01-17T21:01:46.177Z,17.15
2023-01-17T21:04:13.294Z,16.27
2023-01-17T21:06:40.701Z,23.70
2023-01-17T21:09:10.590Z,18.40
2023-01-17T21:11:37.809Z,18.58
2023-01-17T21:14:08.322Z,13.65
2023-01-17T21:16:35.778Z,15.70
2023-01-17T21:19:03.054Z,18.88
2023-01-17T21:21:30.231Z,21.30
2023-01-17T21:23:58.019Z,17.70
2023-01-17T21:26:28.698Z,14.70
2023-01-17T21:28:55.768Z,19.83
2023-01-17T21:31:27.821Z,20.80
2023-01-17T21:33:58.523Z,17.75
2023-01-17T21:36:27.417Z,14.02
2023-01-17T21:38:57.156Z,14.75
2023-01-17T21:41:29.027Z,18.67
2023-01-17T21:43:57.614Z,16.92
2023-01-17T21:46:24.859Z,10.95
2023-01-17T21:48:51.892Z,16.63
2023-01-17T21:51:19.867Z,16.33
2023-01-17T21:53:46.920Z,18.02
2023-01-17T21:56:32.908Z,11.68
2023-01-17T21:59:00.144Z,10.27
2023-01-17T22:01:29.046Z,15.23
2023-01-17T22:03:57.519Z,10.63
2023-01-17T22:06:27.195Z,13.90
2023-01-17T22:08:55.462Z,11.30
2023-01-17T22:11:24.486Z,15.85
2023-01-17T22:13:51.694Z,14.93
2023-01-17T22:16:20.109Z,10.38
2023-01-17T22:18:47.662Z,10.55
2023-01-17T22:21:24.412Z,12.90
2023-01-17T22:23:58.043Z,14.73
2023-01-17T22:26:27.168Z,10.40
2023-01-17T22:28:55.131Z,13.82
2023-01-17T22:31:24.300Z,11.57
2023-01-17T22:33:56.392Z,11.48
2023-01-17T22:36:23.685Z,11.13
2023-01-17T22:38:50.735Z,14.82
2023-01-17T22:41:20.303Z,11.35
2023-01-17T22:43:49.372Z,12.57
2023-01-17T22:46:18.341Z,15.77
2023-01-17T22:48:45.579Z,9.52
2023-01-17T22:51:14.845Z,12.05
2023-01-17T22:53:45.519Z,10.80
2023-01-17T22:56:16.907Z,20.35
2023-01-17T22:58:48.971Z,10.38
2023-01-17T23:01:19.369Z,11.25
2023-01-17T23:03:46.979Z,19.60
2023-01-17T23:06:22.105Z,11.65
2023-01-17T23:08:50.844Z,12.05
2023-01-17T23:11:41.166Z,13.95
2023-01-17T23:14:12.366Z,9.85
2023-01-17T23:16:59.214Z,8.90
2023-01-17T23:19:27.522Z,15.18
2023-01-17T23:22:16.063Z,13.00
2023-01-17T23:24:43.864Z,10.93
2023-01-17T23:27:33.190Z,11.18
2023-01-17T23:30:00.152Z,12.20
2023-01-17T23:32:27.283Z,12.60
2023-01-17T23:34:54.217Z,8.23
2023-01-17T23:37:21.187Z,12.52
2023-01-17T23:39:48.292Z,7.85
2023-01-17T23:42:33.965Z,11.35
2023-01-17T23:45:01.036Z,10.77
2023-01-17T23:47:27.996Z,11.68
2023-01-17T23:49:55.140Z,6.20
2023-01-17T23:52:22.093Z,10.77
2023-01-17T23:54:49.275Z,7.30
2023-01-17T23:57:16.346Z,10.80
2023-01-17T23:59:43.267Z,10.18
